createdAt,value
2022-09-22T00:02:36.972Z,6.63
2022-09-22T00:07:38.717Z,7.88
2022-09-22T00:12:40.456Z,6.63
2022-09-22T00:17:42.703Z,6.43
2022-09-22T00:22:44.475Z,6.57
2022-09-22T00:27:46.359Z,11.88
2022-09-22T00:32:48.111Z,8.27
2022-09-22T00:37:49.891Z,9.38
2022-09-22T00:42:51.612Z,10.35
2022-09-22T00:47:53.512Z,6.22
2022-09-22T00:52:58.909Z,4.78
2022-09-22T00:58:02.704Z,6.47
2022-09-22T01:03:09.082Z,9.20
2022-09-22T01:08:12.037Z,6.47
2022-09-22T01:13:40.424Z,7.00
2022-09-22T01:18:49.055Z,4.90
2022-09-22T01:24:18.183Z,7.38
2022-09-22T01:29:42.904Z,9.20
2022-09-22T01:34:56.945Z,7.93
2022-09-22T01:40:05.735Z,4.05
2022-09-22T01:50:28.953Z,7.35
2022-09-22T01:55:35.556Z,5.22
2022-09-22T02:00:40.822Z,6.15
2022-09-22T02:05:47.262Z,5.20
2022-09-22T02:10:49.966Z,7.10
2022-09-22T02:16:01.204Z,8.55
2022-09-22T02:21:04.667Z,11.60
2022-09-22T02:26:08.360Z,9.63
2022-09-22T02:31:20.079Z,8.80
2022-09-22T02:36:40.332Z,13.68
2022-09-22T02:42:05.238Z,13.10
2022-09-22T02:47:13.679Z,9.38
2022-09-22T02:52:18.686Z,9.70
2022-09-22T02:57:20.967Z,9.43
2022-09-22T03:02:22.713Z,5.22
2022-09-22T03:07:24.459Z,9.35
2022-09-22T03:12:26.180Z,9.27
2022-09-22T03:17:27.905Z,8.52
2022-09-22T03:22:29.619Z,8.93
2022-09-22T03:27:31.386Z,10.30
2022-09-22T03:32:33.353Z,8.80
2022-09-22T03:37:35.164Z,5.97
2022-09-22T03:42:36.928Z,7.10
2022-09-22T03:47:38.928Z,8.52
2022-09-22T03:52:43.025Z,7.65
2022-09-22T03:57:45.114Z,11.27
2022-09-22T04:02:46.938Z,9.50
2022-09-22T04:07:48.858Z,7.03
2022-09-22T04:12:50.646Z,14.68
2022-09-22T04:17:52.355Z,8.93
2022-09-22T04:22:54.101Z,11.13
2022-09-22T04:27:55.908Z,9.27
2022-09-22T04:32:59.662Z,15.82
2022-09-22T04:38:01.666Z,17.13
2022-09-22T04:43:03.605Z,9.75
2022-09-22T04:48:05.747Z,14.90
2022-09-22T04:53:07.947Z,15.88
2022-09-22T04:58:09.940Z,12.07
2022-09-22T05:03:19.920Z,13.98
2022-09-22T05:08:24.110Z,9.35
2022-09-22T05:13:25.964Z,12.98
2022-09-22T05:18:27.683Z,96.68
2022-09-22T05:23:29.610Z,18.38
2022-09-22T05:28:31.332Z,42.33
2022-09-22T05:33:33.076Z,17.45
2022-09-22T05:38:34.760Z,21.83
2022-09-22T05:43:37.160Z,21.20
2022-09-22T05:48:38.926Z,7.43
2022-09-22T05:53:40.861Z,7.68
2022-09-22T05:58:42.582Z,11.07
2022-09-22T06:03:44.407Z,12.70
2022-09-22T06:08:48.842Z,12.93
2022-09-22T06:13:51.098Z,9.02
2022-09-22T06:18:52.803Z,14.70
2022-09-22T06:23:57.560Z,15.70
2022-09-22T06:28:59.316Z,8.00
2022-09-22T06:34:04.323Z,8.15
2022-09-22T06:39:10.563Z,6.15
2022-09-22T06:44:12.609Z,5.78
2022-09-22T06:49:14.425Z,5.25
2022-09-22T06:54:16.158Z,5.55
2022-09-22T06:59:17.987Z,2.70
2022-09-22T07:04:20.033Z,5.88
2022-09-22T07:09:22.023Z,3.53
2022-09-22T07:14:25.476Z,3.47
2022-09-22T07:19:27.219Z,2.58
2022-09-22T07:24:28.954Z,13.90
2022-09-22T07:29:30.910Z,2.05
2022-09-22T07:34:32.891Z,2.88
2022-09-22T07:39:34.653Z,1.90
2022-09-22T07:44:54.846Z,3.55
2022-09-22T07:49:56.651Z,2.22
2022-09-22T07:54:58.382Z,3.20
2022-09-22T08:00:00.253Z,5.13
2022-09-22T08:05:04.168Z,4.85
2022-09-22T08:10:06.449Z,7.05
2022-09-22T08:15:08.942Z,4.88
2022-09-22T08:20:10.672Z,5.03
2022-09-22T08:25:12.786Z,11.32
2022-09-22T08:30:14.571Z,1.75
2022-09-22T08:35:16.433Z,2.05
2022-09-22T08:40:23.814Z,6.03
2022-09-22T08:45:36.441Z,2.10
2022-09-22T08:51:19.255Z,5.22
2022-09-22T08:56:43.241Z,3.15
2022-09-22T09:01:49.813Z,5.70
2022-09-22T09:07:04.095Z,1.60
2022-09-22T09:12:14.716Z,2.25
2022-09-22T09:17:35.445Z,1.55
2022-09-22T09:22:44.985Z,5.20
2022-09-22T09:28:04.685Z,5.10
2022-09-22T09:33:18.108Z,4.53
2022-09-22T09:38:30.387Z,4.43
2022-09-22T09:43:33.463Z,5.80
2022-09-22T09:48:58.682Z,3.40
2022-09-22T09:54:05.554Z,25.40
2022-09-22T09:59:30.557Z,4.47
2022-09-22T10:04:37.560Z,6.30
2022-09-22T10:09:40.819Z,2.70
2022-09-22T10:14:51.283Z,3.70
2022-09-22T10:19:53.029Z,2.88
2022-09-22T10:24:57.158Z,6.00
2022-09-22T10:30:11.319Z,3.65
2022-09-22T10:35:28.095Z,19.20
2022-09-22T10:40:31.816Z,2.85
2022-09-22T10:45:47.588Z,2.65
2022-09-22T10:50:49.298Z,4.25
2022-09-22T10:56:26.300Z,6.05
2022-09-22T11:01:46.752Z,6.55
2022-09-22T11:07:37.047Z,3.65
2022-09-22T11:13:16.545Z,2.72
2022-09-22T11:18:45.959Z,9.35
2022-09-22T11:23:57.174Z,3.72
2022-09-22T11:29:20.398Z,6.13
2022-09-22T11:34:51.260Z,6.63
2022-09-22T11:40:15.726Z,12.90
2022-09-22T11:45:35.631Z,12.82
2022-09-22T11:51:00.232Z,5.10
2022-09-22T11:56:16.794Z,2.92
2022-09-22T12:01:23.251Z,6.95
2022-09-22T12:06:36.673Z,9.00
2022-09-22T12:11:40.912Z,2.97
2022-09-22T12:17:27.160Z,4.20
2022-09-22T12:22:52.111Z,3.90
2022-09-22T12:27:58.645Z,9.57
2022-09-22T12:33:00.635Z,8.70
2022-09-22T12:38:02.675Z,3.75
2022-09-22T12:43:05.959Z,5.40
2022-09-22T12:48:22.211Z,10.07
2022-09-22T12:53:30.369Z,5.40
2022-09-22T12:58:32.161Z,5.05
2022-09-22T13:03:36.636Z,9.38
2022-09-22T13:08:38.312Z,20.33
2022-09-22T13:13:42.519Z,11.07
2022-09-22T13:18:58.717Z,5.80
2022-09-22T13:24:03.647Z,17.60
2022-09-22T13:29:20.889Z,5.88
2022-09-22T13:34:31.579Z,5.00
2022-09-22T13:39:46.242Z,9.75
2022-09-22T13:45:06.632Z,5.20
2022-09-22T13:50:13.323Z,13.73
2022-09-22T13:55:21.427Z,16.63
2022-09-22T14:00:31.402Z,24.95
2022-09-22T14:05:35.095Z,10.88
2022-09-22T14:10:37.765Z,7.55
2022-09-22T14:15:43.531Z,7.78
2022-09-22T14:20:45.932Z,10.85
2022-09-22T14:25:47.756Z,12.60
2022-09-22T14:30:50.456Z,10.48
2022-09-22T14:36:00.842Z,11.93
2022-09-22T14:41:03.151Z,9.63
2022-09-22T14:46:25.596Z,16.70
2022-09-22T14:51:27.706Z,8.77
2022-09-22T14:56:34.144Z,8.43
2022-09-22T15:01:54.700Z,15.15
2022-09-22T15:06:59.090Z,11.88
2022-09-22T15:12:02.967Z,18.48
2022-09-22T15:17:43.887Z,16.58
2022-09-22T15:22:46.361Z,17.70
2022-09-22T15:27:51.615Z,18.10
2022-09-22T15:32:53.354Z,30.70
2022-09-22T15:37:55.615Z,18.65
2022-09-22T15:43:12.249Z,25.92
2022-09-22T15:48:27.805Z,34.22
2022-09-22T15:53:30.997Z,42.35
2022-09-22T15:58:36.820Z,69.25
2022-09-22T16:03:41.206Z,57.10
2022-09-22T16:08:46.243Z,50.70
2022-09-22T16:13:48.607Z,15.75
2022-09-22T16:18:50.359Z,15.45
2022-09-22T16:24:03.395Z,19.13
2022-09-22T16:29:07.164Z,14.55
2022-09-22T16:34:09.466Z,15.55
2022-09-22T16:39:11.287Z,23.77
2022-09-22T16:44:13.444Z,22.98
2022-09-22T16:49:20.329Z,16.85
2022-09-22T16:54:22.369Z,19.40
2022-09-22T16:59:24.166Z,20.05
2022-09-22T17:04:25.986Z,35.47
2022-09-22T17:09:27.744Z,30.80
2022-09-22T17:14:30.502Z,50.20
2022-09-22T17:19:32.819Z,38.88
2022-09-22T17:24:34.543Z,38.67
2022-09-22T17:29:36.280Z,40.65
2022-09-22T17:34:38.583Z,36.35
2022-09-22T17:39:40.492Z,36.60
2022-09-22T17:44:42.251Z,30.65
2022-09-22T17:50:02.824Z,39.28
2022-09-22T17:55:12.720Z,33.78
2022-09-22T18:00:21.222Z,33.45
2022-09-22T18:05:26.673Z,34.10
2022-09-22T18:10:35.490Z,45.15
2022-09-22T18:15:37.401Z,32.20
2022-09-22T18:20:39.720Z,35.78
2022-09-22T18:25:41.550Z,41.30
2022-09-22T18:30:43.337Z,132.88
2022-09-22T18:35:47.058Z,156.02
2022-09-22T18:40:51.366Z,125.47
2022-09-22T18:45:53.231Z,142.27
2022-09-22T18:50:54.954Z,138.45
2022-09-22T18:56:07.343Z,88.85
2022-09-22T19:01:13.853Z,67.65
2022-09-22T19:06:16.331Z,50.40
2022-09-22T19:11:18.055Z,42.53
2022-09-22T19:16:21.729Z,41.33
2022-09-22T19:21:25.184Z,71.18
2022-09-22T19:26:28.283Z,76.40
2022-09-22T19:31:30.162Z,57.38
2022-09-22T19:36:32.754Z,31.40
2022-09-22T19:41:40.630Z,30.67
2022-09-22T19:46:43.489Z,23.33
2022-09-22T19:51:45.439Z,20.40
2022-09-22T19:56:48.503Z,24.92
2022-09-22T20:01:51.067Z,21.15
2022-09-22T20:06:52.931Z,27.80
2022-09-22T20:11:54.760Z,30.48
2022-09-22T20:17:03.200Z,42.00
2022-09-22T20:22:28.360Z,41.30
2022-09-22T20:27:37.208Z,38.42
2022-09-22T20:37:42.343Z,31.27
2022-09-22T20:42:46.348Z,31.08
2022-09-22T20:47:48.569Z,33.88
2022-09-22T20:52:50.863Z,34.08
2022-09-22T20:57:52.720Z,33.28
2022-09-22T21:02:54.746Z,30.60
2022-09-22T21:08:16.547Z,25.27
2022-09-22T21:13:18.427Z,21.25
2022-09-22T21:18:24.671Z,42.25
2022-09-22T21:23:26.543Z,28.27
2022-09-22T21:28:29.893Z,32.10
2022-09-22T21:33:32.701Z,36.40
2022-09-22T21:38:36.734Z,29.63
2022-09-22T21:43:38.983Z,30.45
2022-09-22T21:48:41.719Z,53.25
2022-09-22T21:53:46.237Z,31.63
2022-09-22T21:58:50.297Z,39.70
2022-09-22T22:03:53.549Z,41.83
2022-09-22T22:09:03.363Z,34.90
2022-09-22T22:14:07.642Z,31.02
2022-09-22T22:19:11.816Z,57.83
2022-09-22T22:24:18.246Z,43.45
2022-09-22T22:29:21.382Z,25.77
2022-09-22T22:34:27.384Z,26.63
2022-09-22T22:39:29.947Z,28.08
2022-09-22T22:44:31.843Z,23.95
2022-09-22T22:49:33.666Z,18.52
2022-09-22T22:54:35.435Z,18.63
2022-09-22T22:59:37.377Z,19.35
2022-09-22T23:04:39.473Z,24.70
2022-09-22T23:09:41.197Z,22.00
2022-09-22T23:14:42.959Z,21.45
2022-09-22T23:19:45.495Z,17.85
2022-09-22T23:24:48.095Z,20.33
2022-09-22T23:29:50.459Z,18.35
2022-09-22T23:34:52.427Z,19.75
2022-09-22T23:39:54.983Z,30.85
2022-09-22T23:44:56.700Z,41.15
2022-09-22T23:50:00.338Z,34.03
2022-09-22T23:55:02.164Z,32.53
